PWSweather.com
Personal Weather Stations
Station Observations
GRD01
Warsaw, LesznoPL 05-084

WarsawLesznoPL 05-084

Lat: 52.257404, Lon: 20.564847

Elevation: 298

Station Type: WH3080

http://pogoda.kampinos.waw.pl

Latest ConditionsUpdated 12:45:00 PM GMT+01:01 Sunday, Oct 22, 2017
Currently Today's Max Today's Min Today's Average
Temperature 49.3°F9.6°C 51.8°F11.0°C 49.3°F9.6°C 50.7°F10.4°C
Dew Point 46.5°F8.1°C 49.3°F9.6°C 46.5°F8.1°C 48.1°F8.9°C
Winds 6.0 mph SE9.7 kmh SE 10.7 mph SE17.2 kmh SE - 3.0 mph 4.8 kmh
Wind Gusts 14.5 mph23.3 kmh 14.5 mph23.3 kmh - -
Humidity 90% 91% 90% 91%
Pressure 29.85 in1010.8 mb 29.88 in1011.9 mb 29.85 in1010.8 mb -
Hour Temp Dew Point Humidity Winds Wind Gusts Pressure Precip Precip Rate Daily Precip Total
12:45 PM 49.3°F9.6°C 46.5°F8.1°C 90% 6.0 mph SE9.7 kmh SE 14.5 mph23.3 kmh 29.85 in1010.8 mb 0.00 in0.0 mm 0.00 in0.0 mm 0.00 in0.0 mm
12:30 PM 49.5°F9.7°C 46.6°F8.1°C 90% 9.8 mph ESE15.8 kmh ESE 12.1 mph19.5 kmh 29.85 in1010.8 mb 0.00 in0.0 mm 0.00 in0.0 mm 0.00 in0.0 mm
12:15 PM 49.5°F9.7°C 46.6°F8.1°C 90% 10.7 mph SE17.2 kmh SE 14.5 mph23.3 kmh 29.85 in1010.8 mb 0.00 in0.0 mm 0.00 in0.0 mm 0.00 in0.0 mm
12:00 PM 49.5°F9.7°C 46.9°F8.3°C 91% 5.4 mph SE8.7 kmh SE 9.8 mph15.8 kmh 29.86 in1011.2 mb 0.00 in0.0 mm 0.00 in0.0 mm 0.00 in0.0 mm
11:45 AM 49.5°F9.7°C 46.9°F8.3°C 91% 10.7 mph SE17.2 kmh SE 13.0 mph20.9 kmh 29.86 in1011.2 mb 0.00 in0.0 mm 0.00 in0.0 mm 0.00 in0.0 mm
11:30 AM 49.5°F9.7°C 46.9°F8.3°C 91% 3.1 mph SE5.0 kmh SE 12.1 mph19.5 kmh 29.86 in1011.2 mb 0.00 in0.0 mm 0.00 in0.0 mm 0.00 in0.0 mm
11:15 AM 49.5°F9.7°C 46.9°F8.3°C 91% 6.0 mph SE9.7 kmh SE 12.1 mph19.5 kmh 29.86 in1011.2 mb 0.00 in0.0 mm 0.00 in0.0 mm 0.00 in0.0 mm
11:00 AM 49.3°F9.6°C 46.8°F8.2°C 91% 3.8 mph SE6.1 kmh SE 11.4 mph18.3 kmh 29.86 in1011.2 mb 0.00 in0.0 mm 0.00 in0.0 mm 0.00 in0.0 mm
10:45 AM 49.3°F9.6°C 46.8°F8.2°C 91% 4.5 mph E7.2 kmh E 10.7 mph17.2 kmh 29.86 in1011.2 mb 0.00 in0.0 mm 0.00 in0.0 mm 0.00 in0.0 mm
10:30 AM 49.5°F9.7°C 46.9°F8.3°C 91% 8.3 mph ESE13.4 kmh ESE 10.7 mph17.2 kmh 29.87 in1011.5 mb 0.00 in0.0 mm 0.00 in0.0 mm 0.00 in0.0 mm
10:15 AM 49.5°F9.7°C 46.9°F8.3°C 91% 9.2 mph SE14.8 kmh SE 12.1 mph19.5 kmh 29.86 in1011.2 mb 0.00 in0.0 mm 0.00 in0.0 mm 0.00 in0.0 mm
10:00 AM 49.5°F9.7°C 46.9°F8.3°C 91% 5.4 mph SE8.7 kmh SE 9.2 mph14.8 kmh 29.87 in1011.5 mb 0.00 in0.0 mm 0.00 in0.0 mm 0.00 in0.0 mm
09:45 AM 49.5°F9.7°C 46.9°F8.3°C 91% 6.9 mph ESE11.1 kmh ESE 11.4 mph18.3 kmh 29.86 in1011.2 mb 0.00 in0.0 mm 0.00 in0.0 mm 0.00 in0.0 mm
09:30 AM 49.5°F9.7°C 46.9°F8.3°C 91% 5.4 mph SE8.7 kmh SE 9.2 mph14.8 kmh 29.87 in1011.5 mb 0.00 in0.0 mm 0.00 in0.0 mm 0.00 in0.0 mm
09:15 AM 49.6°F9.8°C 47.1°F8.4°C 91% 7.6 mph SE12.2 kmh SE 13.0 mph20.9 kmh 29.87 in1011.5 mb 0.00 in0.0 mm 0.00 in0.0 mm 0.00 in0.0 mm
09:00 AM 50.0°F10.0°C 47.5°F8.6°C 91% 6.9 mph SE11.1 kmh SE 13.0 mph20.9 kmh 29.86 in1011.2 mb 0.00 in0.0 mm 0.00 in0.0 mm 0.00 in0.0 mm
08:45 AM 50.0°F10.0°C 47.5°F8.6°C 91% 3.8 mph SE6.1 kmh SE 10.7 mph17.2 kmh 29.87 in1011.5 mb 0.00 in0.0 mm 0.00 in0.0 mm 0.00 in0.0 mm
08:30 AM 50.2°F10.1°C 47.7°F8.7°C 91% 7.6 mph SE12.2 kmh SE 10.7 mph17.2 kmh 29.87 in1011.5 mb 0.00 in0.0 mm 0.00 in0.0 mm 0.00 in0.0 mm
08:15 AM 50.2°F10.1°C 47.7°F8.7°C 91% 6.0 mph SE9.7 kmh SE 9.8 mph15.8 kmh 29.87 in1011.5 mb 0.00 in0.0 mm 0.00 in0.0 mm 0.00 in0.0 mm
08:00 AM 50.4°F10.2°C 47.8°F8.8°C 91% 8.3 mph SE13.4 kmh SE 13.6 mph21.9 kmh 29.87 in1011.5 mb 0.00 in0.0 mm 0.00 in0.0 mm 0.00 in0.0 mm
07:45 AM 50.5°F10.3°C 48.0°F8.9°C 91% 7.6 mph ESE12.2 kmh ESE 10.7 mph17.2 kmh 29.87 in1011.5 mb 0.00 in0.0 mm 0.00 in0.0 mm 0.00 in0.0 mm
07:30 AM 50.9°F10.5°C 48.4°F9.1°C 91% 3.1 mph E5.0 kmh E 9.8 mph15.8 kmh 29.87 in1011.5 mb 0.00 in0.0 mm 0.00 in0.0 mm 0.00 in0.0 mm
07:15 AM 51.4°F10.8°C 48.9°F9.4°C 91% 3.1 mph E5.0 kmh E 9.8 mph15.8 kmh 29.87 in1011.5 mb 0.00 in0.0 mm 0.00 in0.0 mm 0.00 in0.0 mm
07:01 AM 51.8°F11.0°C 49.3°F9.6°C 91% 1.6 mph S2.6 kmh S 4.5 mph7.2 kmh 29.87 in1011.5 mb 0.00 in0.0 mm 0.00 in0.0 mm 0.00 in0.0 mm
07:00 AM 51.8°F11.0°C 49.3°F9.6°C 91% 1.6 mph S2.6 kmh S 4.5 mph7.2 kmh 29.87 in1011.5 mb 0.00 in0.0 mm 0.00 in0.0 mm 0.00 in0.0 mm
06:45 AM 51.6°F10.9°C 49.1°F9.5°C 91% 0.7 mph SSE1.1 kmh SSE 4.5 mph7.2 kmh 29.86 in1011.2 mb 0.00 in0.0 mm 0.00 in0.0 mm 0.00 in0.0 mm
06:30 AM 51.6°F10.9°C 49.1°F9.5°C 91% 1.6 mph SE2.6 kmh SE 5.4 mph8.7 kmh 29.86 in1011.2 mb 0.00 in0.0 mm 0.00 in0.0 mm 0.00 in0.0 mm
06:15 AM 51.4°F10.8°C 48.9°F9.4°C 91% 1.6 mph SSE2.6 kmh SSE 4.5 mph7.2 kmh 29.86 in1011.2 mb 0.00 in0.0 mm 0.00 in0.0 mm 0.00 in0.0 mm
06:00 AM 51.4°F10.8°C 48.9°F9.4°C 91% 1.6 mph SSE2.6 kmh SSE 2.2 mph3.5 kmh 29.85 in1010.8 mb 0.00 in0.0 mm 0.00 in0.0 mm 0.00 in0.0 mm
05:45 AM 51.3°F10.7°C 48.7°F9.3°C 91% Calm Calm 2.2 mph3.5 kmh 29.86 in1011.2 mb 0.00 in0.0 mm 0.00 in0.0 mm 0.00 in0.0 mm
05:30 AM 51.4°F10.8°C 48.9°F9.4°C 91% Calm Calm 2.2 mph3.5 kmh 29.86 in1011.2 mb 0.00 in0.0 mm 0.00 in0.0 mm 0.00 in0.0 mm
05:15 AM 51.4°F10.8°C 48.9°F9.4°C 91% Calm Calm 2.2 mph3.5 kmh 29.86 in1011.2 mb 0.00 in0.0 mm 0.00 in0.0 mm 0.00 in0.0 mm
05:00 AM 51.4°F10.8°C 48.9°F9.4°C 91% Calm Calm 2.2 mph3.5 kmh 29.86 in1011.2 mb 0.00 in0.0 mm 0.00 in0.0 mm 0.00 in0.0 mm
04:45 AM 51.4°F10.8°C 48.9°F9.4°C 91% Calm Calm 1.6 mph2.6 kmh 29.86 in1011.2 mb 0.00 in0.0 mm 0.00 in0.0 mm 0.00 in0.0 mm
04:30 AM 51.4°F10.8°C 48.9°F9.4°C 91% Calm Calm 1.6 mph2.6 kmh 29.86 in1011.2 mb 0.00 in0.0 mm 0.00 in0.0 mm 0.00 in0.0 mm
04:15 AM 51.3°F10.7°C 48.7°F9.3°C 91% Calm Calm 1.6 mph2.6 kmh 29.86 in1011.2 mb 0.00 in0.0 mm 0.00 in0.0 mm 0.00 in0.0 mm
04:00 AM 51.3°F10.7°C 48.7°F9.3°C 91% 0.7 mph S1.1 kmh S 1.6 mph2.6 kmh 29.86 in1011.2 mb 0.00 in0.0 mm 0.00 in0.0 mm 0.00 in0.0 mm
03:45 AM 51.4°F10.8°C 48.9°F9.4°C 91% 0.7 mph S1.1 kmh S 2.2 mph3.5 kmh 29.86 in1011.2 mb 0.00 in0.0 mm 0.00 in0.0 mm 0.00 in0.0 mm
03:30 AM 51.4°F10.8°C 48.9°F9.4°C 91% Calm Calm 1.6 mph2.6 kmh 29.86 in1011.2 mb 0.00 in0.0 mm 0.00 in0.0 mm 0.00 in0.0 mm
03:15 AM 51.6°F10.9°C 49.1°F9.5°C 91% Calm Calm 0.7 mph1.1 kmh 29.86 in1011.2 mb 0.00 in0.0 mm 0.00 in0.0 mm 0.00 in0.0 mm
03:00 AM 51.8°F11.0°C 49.3°F9.6°C 91% Calm Calm 0.7 mph1.1 kmh 29.87 in1011.5 mb 0.00 in0.0 mm 0.00 in0.0 mm 0.00 in0.0 mm
02:45 AM 51.6°F10.9°C 49.1°F9.5°C 91% Calm Calm 2.2 mph3.5 kmh 29.86 in1011.2 mb 0.00 in0.0 mm 0.00 in0.0 mm 0.00 in0.0 mm
02:30 AM 51.4°F10.8°C 48.9°F9.4°C 91% Calm Calm 1.6 mph2.6 kmh 29.87 in1011.5 mb 0.00 in0.0 mm 0.00 in0.0 mm 0.00 in0.0 mm
02:15 AM 51.4°F10.8°C 48.6°F9.2°C 90% Calm Calm -- 29.87 in1011.5 mb 0.00 in0.0 mm 0.00 in0.0 mm 0.00 in0.0 mm
02:00 AM 51.4°F10.8°C 48.6°F9.2°C 90% Calm Calm 1.6 mph2.6 kmh 29.87 in1011.5 mb 0.00 in0.0 mm 0.00 in0.0 mm 0.00 in0.0 mm
01:45 AM 51.3°F10.7°C 48.4°F9.1°C 90% Calm Calm 0.7 mph1.1 kmh 29.87 in1011.5 mb 0.00 in0.0 mm 0.00 in0.0 mm 0.00 in0.0 mm
01:30 AM 51.3°F10.7°C 48.4°F9.1°C 90% Calm Calm 2.2 mph3.5 kmh 29.88 in1011.9 mb 0.00 in0.0 mm 0.00 in0.0 mm 0.00 in0.0 mm
01:15 AM 51.3°F10.7°C 48.4°F9.1°C 90% 1.6 mph SSW2.6 kmh SSW 3.8 mph6.1 kmh 29.87 in1011.5 mb 0.00 in0.0 mm 0.00 in0.0 mm 0.00 in0.0 mm
01:00 AM 51.3°F10.7°C 48.4°F9.1°C 90% 1.6 mph SW2.6 kmh SW 3.8 mph6.1 kmh 29.88 in1011.9 mb 0.00 in0.0 mm 0.00 in0.0 mm 0.00 in0.0 mm
12:45 AM 51.1°F10.6°C 48.2°F9.0°C 90% 0.7 mph SSE1.1 kmh SSE 2.2 mph3.5 kmh 29.88 in1011.9 mb 0.00 in0.0 mm 0.00 in0.0 mm 0.00 in0.0 mm
12:30 AM 51.1°F10.6°C 48.2°F9.0°C 90% Calm Calm -- 29.87 in1011.5 mb 0.00 in0.0 mm 0.00 in0.0 mm 0.00 in0.0 mm
12:15 AM 50.9°F10.5°C 48.1°F8.9°C 90% Calm Calm -- 29.87 in1011.5 mb 0.00 in0.0 mm 0.00 in0.0 mm 0.00 in0.0 mm
12:00 AM 50.9°F10.5°C 48.1°F8.9°C 90% Calm Calm -- 29.87 in1011.5 mb 0.00 in0.0 mm 0.00 in0.0 mm 0.00 in0.0 mm